Sipu Muin — CHCGA — position and weather

sailwx.info

Track history (hours):
 
Tides and Currents Weather Stations Pressure Air Temp Water Temp Dewpoint Dewpoint Depression Visibility Wind Speed Wind Dir Waves Ship Positions

Sipu Muin

Last reported at 2014-Oct-20 12:14 UTC. Time now 2014-Oct-24 14:44 UTC.
Position N 46°30' W 072°14'.

Type: High speed craft. MMSI: 316001988.

Date/timePositionNaut miles runAvg speedWind from/ knotsBaromVisibWave heightAir tempDewpointWater temp
2014-Oct-20 12:14N 46°30' W 072°14'  
2014-Oct-17 16:25N 46°19' W 072°34'3933.5
2014-Oct-17 15:16N 45°53' W 073°16'2534.8
2014-Oct-17 14:33N 45°31' W 073°32'2120.3
2014-Oct-17 13:31N 45°24' W 074°00'2 0.1
2014-Oct-16 19:33N 45°25' W 073°59'5 3.5
2014-Oct-16 18:07N 45°20' W 073°57'1 1.7
2014-Oct-16 17:26N 45°20' W 073°56'4 4.7
2014-Oct-16 16:32N 45°24' W 073°54'0 0.4
2014-Oct-16 15:34N 45°24' W 073°54'7 6.6
2014-Oct-16 14:32N 45°26' W 073°45'1 0.8
2014-Oct-16 13:33N 45°25' W 073°45'9 0.5
2014-Oct-15 18:33N 45°31' W 073°54'1 0.6
2014-Oct-15 17:33N 45°31' W 073°53'7 6.8
2014-Oct-15 16:30N 45°25' W 073°59'0 0.0
2014-Oct-15 15:18N 45°25' W 073°59'7 9.6
2014-Oct-15 14:33N 45°31' W 073°53'1 1.0
2014-Oct-15 13:34N 45°31' W 073°51'8 7.5
2014-Oct-15 12:33N 45°25' W 073°59'0 0.0
2014-Oct-14 19:33N 45°25' W 073°59'4 3.9
2014-Oct-14 18:33N 45°29' W 073°58'3 3.3
2014-Oct-14 17:34N 45°31' W 073°54'7 4.7
2014-Oct-14 16:08N 45°25' W 073°59'  
2014-Oct-10 14:05N 45°19' W 073°55'5 9.7
2014-Oct-10 13:33N 45°22' W 073°49'8 7.7
2014-Oct-10 12:33N 45°25' W 073°59'  
Track history (hours):
 
Tides and Currents Weather Stations Pressure Air Temp Water Temp Dewpoint Dewpoint Depression Visibility Wind Speed Wind Dir Waves Ship Positions

Sipu Muin

Last reported at 2014-Oct-20 12:14 UTC. Time now 2014-Oct-24 14:44 UTC.
Position N 46°30' W 072°14'.

Type: High speed craft. MMSI: 316001988.

Date/timePositionNaut miles runAvg speedWind from/ knotsBaromVisibWave heightAir tempDewpointWater temp
2014-Oct-20 12:14N 46°30' W 072°14'  
2014-Oct-17 16:25N 46°19' W 072°34'3933.5
2014-Oct-17 15:16N 45°53' W 073°16'2534.8
2014-Oct-17 14:33N 45°31' W 073°32'2120.3
2014-Oct-17 13:31N 45°24' W 074°00'2 0.1
2014-Oct-16 19:33N 45°25' W 073°59'5 3.5
2014-Oct-16 18:07N 45°20' W 073°57'1 1.7
2014-Oct-16 17:26N 45°20' W 073°56'4 4.7
2014-Oct-16 16:32N 45°24' W 073°54'0 0.4
2014-Oct-16 15:34N 45°24' W 073°54'7 6.6
2014-Oct-16 14:32N 45°26' W 073°45'1 0.8
2014-Oct-16 13:33N 45°25' W 073°45'9 0.5
2014-Oct-15 18:33N 45°31' W 073°54'1 0.6
2014-Oct-15 17:33N 45°31' W 073°53'7 6.8
2014-Oct-15 16:30N 45°25' W 073°59'0 0.0
2014-Oct-15 15:18N 45°25' W 073°59'7 9.6
2014-Oct-15 14:33N 45°31' W 073°53'1 1.0
2014-Oct-15 13:34N 45°31' W 073°51'8 7.5
2014-Oct-15 12:33N 45°25' W 073°59'0 0.0
2014-Oct-14 19:33N 45°25' W 073°59'4 3.9
2014-Oct-14 18:33N 45°29' W 073°58'3 3.3
2014-Oct-14 17:34N 45°31' W 073°54'7 4.7
2014-Oct-14 16:08N 45°25' W 073°59'  
2014-Oct-10 14:05N 45°19' W 073°55'5 9.7
2014-Oct-10 13:33N 45°22' W 073°49'8 7.7
2014-Oct-10 12:33N 45°25' W 073°59'  

Dump ship's entire track history